Terminal Aerodrome Forecast
Issued by NWS

Home | Current Version | Previous Version | Text Only | Print | Product List | Glossary On
Versions: 1 2 3 4 5 6 7 8 9 10 11 12 13 14 15 16 17 18 19 20
000
FTUS43 KOAX 011125
TAFCDR
TAF
KCDR 011125Z 0112/0212 36011KT 3SM -SN SCT015 OVC025
     FM011400 35008KT P6SM OVC030
     FM011900 34008KT P6SM SCT050
     FM020000 VRB03KT P6SM SCT250=

USA.gov is the U.S. government's official web portal to all federal, state and local government web resources and services.